createdAt,value
2022-11-13T00:01:08.445Z,86.90
2022-11-13T00:03:36.207Z,87.42
2022-11-13T00:06:04.617Z,87.54
2022-11-13T00:08:34.277Z,87.47
2022-11-13T00:11:03.618Z,87.08
2022-11-13T00:13:31.485Z,87.11
2022-11-13T00:16:00.874Z,87.48
2022-11-13T00:18:30.784Z,87.03
2022-11-13T00:20:59.459Z,87.83
2022-11-13T00:23:27.243Z,87.29
2022-11-13T00:25:56.628Z,87.81
2022-11-13T00:28:24.500Z,87.87
2022-11-13T00:30:52.497Z,87.21
2022-11-13T00:33:38.331Z,87.09
2022-11-13T00:36:16.872Z,87.42
2022-11-13T00:38:44.958Z,87.94
2022-11-13T00:41:14.368Z,87.93
2022-11-13T00:43:42.988Z,87.55
2022-11-13T00:46:11.226Z,87.88
2022-11-13T00:48:39.548Z,87.98
2022-11-13T00:51:07.774Z,87.11
2022-11-13T00:53:35.843Z,87.35
2022-11-13T00:56:03.853Z,86.72
2022-11-13T00:58:33.372Z,87.11
2022-11-13T01:01:07.560Z,87.65
2022-11-13T01:03:36.031Z,87.13
2022-11-13T01:06:12.075Z,86.71
2022-11-13T01:08:40.068Z,87.19
2022-11-13T01:11:12.424Z,87.77
2022-11-13T01:13:42.688Z,86.75
2022-11-13T01:16:13.479Z,87.83
2022-11-13T01:18:42.883Z,87.06
2022-11-13T01:21:13.337Z,87.47
2022-11-13T01:23:41.601Z,87.37
2022-11-13T01:26:12.868Z,86.70
2022-11-13T01:28:43.586Z,87.09
2022-11-13T01:31:13.491Z,87.05
2022-11-13T01:33:41.587Z,87.35
2022-11-13T01:36:13.111Z,87.65
2022-11-13T01:38:40.918Z,87.25
2022-11-13T01:41:12.221Z,87.07
2022-11-13T01:43:41.403Z,87.85
2022-11-13T01:46:17.310Z,87.04
2022-11-13T01:48:48.591Z,88.26
2022-11-13T01:51:25.295Z,87.29
2022-11-13T01:53:54.428Z,87.59
2022-11-13T01:56:23.620Z,87.34
2022-11-13T01:58:59.991Z,87.43
2022-11-13T02:01:27.924Z,88.44
2022-11-13T02:03:55.937Z,88.28
2022-11-13T02:06:24.123Z,87.84
2022-11-13T02:08:52.563Z,87.88
2022-11-13T02:11:21.877Z,87.81
2022-11-13T02:13:50.519Z,87.96
2022-11-13T02:16:21.347Z,88.03
2022-11-13T02:18:49.490Z,88.46
2022-11-13T02:21:32.902Z,87.99
2022-11-13T02:24:22.061Z,87.87
2022-11-13T02:26:51.974Z,88.21
2022-11-13T02:29:20.082Z,88.19
2022-11-13T02:31:47.915Z,88.60
2022-11-13T02:34:15.746Z,88.65
2022-11-13T02:36:43.892Z,88.47
2022-11-13T02:39:14.423Z,88.47
2022-11-13T02:41:43.862Z,88.44
2022-11-13T02:44:11.820Z,87.88
2022-11-13T02:46:39.705Z,88.79
2022-11-13T02:49:07.716Z,88.63
2022-11-13T02:51:35.553Z,88.46
2022-11-13T02:54:03.635Z,88.56
2022-11-13T02:56:31.545Z,88.24
2022-11-13T02:59:00.890Z,88.94
2022-11-13T03:01:28.782Z,88.28
2022-11-13T03:03:58.015Z,88.83
2022-11-13T03:06:26.327Z,88.25
2022-11-13T03:08:54.482Z,88.40
2022-11-13T03:11:22.565Z,88.28
2022-11-13T03:13:50.411Z,88.22
2022-11-13T03:16:19.643Z,88.72
2022-11-13T03:18:47.525Z,88.25
2022-11-13T03:21:16.839Z,88.67
2022-11-13T03:23:46.135Z,88.54
2022-11-13T03:26:17.894Z,88.86
2022-11-13T03:28:45.651Z,88.27
2022-11-13T03:31:13.944Z,88.73
2022-11-13T03:33:43.861Z,88.70
2022-11-13T03:36:11.702Z,88.93
2022-11-13T03:38:39.706Z,88.12
2022-11-13T03:41:07.530Z,88.93
2022-11-13T03:43:35.348Z,88.54
2022-11-13T03:46:03.559Z,88.94
2022-11-13T03:48:31.764Z,88.95
2022-11-13T03:51:01.467Z,88.55
2022-11-13T03:53:29.628Z,88.48
2022-11-13T03:55:57.403Z,88.97
2022-11-13T03:58:25.713Z,88.64
2022-11-13T04:00:56.139Z,87.54
2022-11-13T04:03:24.407Z,88.16
2022-11-13T04:05:52.761Z,88.38
2022-11-13T04:08:22.192Z,88.33
2022-11-13T04:10:49.953Z,88.76
2022-11-13T04:13:17.765Z,87.88
2022-11-13T04:15:45.739Z,88.30
2022-11-13T04:18:13.903Z,88.14
2022-11-13T04:20:41.739Z,88.35
2022-11-13T04:23:12.604Z,88.07
2022-11-13T04:25:42.107Z,87.72
2022-11-13T04:28:10.697Z,88.28
2022-11-13T04:30:39.198Z,87.80
2022-11-13T04:33:07.713Z,87.81
2022-11-13T04:35:35.733Z,87.94
2022-11-13T04:38:03.709Z,88.39
2022-11-13T04:40:31.776Z,87.26
2022-11-13T04:43:00.132Z,88.52
2022-11-13T04:45:28.733Z,87.37
2022-11-13T04:47:57.278Z,87.41
2022-11-13T04:50:25.223Z,87.88
2022-11-13T04:52:53.213Z,87.24
2022-11-13T04:55:21.365Z,86.75
2022-11-13T04:57:51.593Z,87.75
2022-11-13T05:00:21.377Z,87.54
2022-11-13T05:02:49.241Z,87.53
2022-11-13T05:05:17.375Z,87.17
2022-11-13T05:07:45.577Z,86.98
2022-11-13T05:10:13.911Z,87.81
2022-11-13T05:12:42.202Z,87.82
2022-11-13T05:15:10.530Z,88.41
2022-11-13T05:17:39.980Z,88.16
2022-11-13T05:20:10.902Z,87.83
2022-11-13T05:22:39.041Z,88.19
2022-11-13T05:25:07.592Z,87.65
2022-11-13T05:27:35.671Z,87.04
2022-11-13T05:30:03.550Z,87.25
2022-11-13T05:32:31.415Z,88.59
2022-11-13T05:35:00.626Z,87.24
2022-11-13T05:37:30.055Z,89.09
2022-11-13T05:39:58.060Z,88.29
2022-11-13T05:42:26.037Z,88.68
2022-11-13T05:44:53.885Z,88.90
2022-11-13T05:47:21.791Z,88.40
2022-11-13T05:49:51.960Z,89.07
2022-11-13T05:52:21.255Z,88.14
2022-11-13T05:54:49.079Z,88.43
2022-11-13T05:57:17.302Z,88.10
2022-11-13T05:59:45.117Z,87.79
2022-11-13T06:02:13.332Z,88.18
2022-11-13T06:04:41.363Z,88.53
2022-11-13T06:07:09.234Z,87.75
2022-11-13T06:09:38.641Z,87.85
2022-11-13T06:12:06.969Z,87.38
2022-11-13T06:14:34.910Z,87.85
2022-11-13T06:17:02.739Z,87.14
2022-11-13T06:19:30.971Z,87.11
2022-11-13T06:21:58.958Z,87.13
2022-11-13T06:24:26.710Z,87.67
2022-11-13T06:26:55.933Z,87.77
2022-11-13T06:29:24.048Z,87.12
2022-11-13T06:31:52.060Z,87.07
2022-11-13T06:34:20.027Z,86.80
2022-11-13T06:36:47.915Z,86.92
2022-11-13T06:39:16.227Z,87.00
2022-11-13T06:41:44.259Z,87.40
2022-11-13T06:44:13.550Z,87.64
2022-11-13T06:46:41.424Z,87.17
2022-11-13T06:49:09.439Z,87.55
2022-11-13T06:51:37.174Z,87.32
2022-11-13T06:54:05.579Z,87.16
2022-11-13T06:56:33.503Z,86.97
2022-11-13T06:59:01.861Z,87.03
2022-11-13T07:01:32.490Z,87.99
2022-11-13T07:04:00.334Z,87.78
2022-11-13T07:06:28.523Z,86.86
2022-11-13T07:08:56.410Z,86.71
2022-11-13T07:11:25.056Z,87.30
2022-11-13T07:13:53.031Z,86.91
2022-11-13T07:16:21.176Z,87.25
2022-11-13T07:18:54.508Z,86.88
2022-11-13T07:21:24.566Z,86.51
2022-11-13T07:23:53.036Z,86.90
2022-11-13T07:26:21.041Z,86.95
2022-11-13T07:28:49.504Z,86.89
2022-11-13T07:31:18.932Z,87.41
2022-11-13T07:33:49.523Z,87.67
2022-11-13T07:36:19.267Z,86.75
2022-11-13T07:38:47.184Z,87.40
2022-11-13T07:41:15.029Z,87.33
2022-11-13T07:43:43.285Z,86.72
2022-11-13T07:46:11.854Z,86.72
2022-11-13T07:48:39.755Z,87.85
2022-11-13T07:51:07.610Z,87.92
2022-11-13T07:53:39.216Z,87.41
2022-11-13T07:56:07.804Z,87.50
2022-11-13T07:58:35.637Z,87.62
2022-11-13T08:01:05.283Z,87.07
2022-11-13T08:03:33.411Z,87.45
2022-11-13T08:06:03.117Z,87.12
2022-11-13T08:08:33.854Z,87.87
2022-11-13T08:11:06.896Z,88.01
2022-11-13T08:13:35.524Z,87.48
2022-11-13T08:16:04.148Z,88.11
2022-11-13T08:18:33.036Z,88.40
2022-11-13T08:21:02.781Z,87.60
2022-11-13T08:23:30.640Z,88.16
2022-11-13T08:25:58.995Z,87.85
2022-11-13T08:28:28.629Z,88.33
2022-11-13T08:30:57.030Z,88.66
2022-11-13T08:33:25.085Z,89.74
2022-11-13T08:35:54.792Z,88.90
2022-11-13T08:38:22.959Z,89.64
2022-11-13T08:40:51.224Z,90.35
2022-11-13T08:43:19.457Z,91.05
2022-11-13T08:45:48.844Z,90.83
2022-11-13T08:48:16.700Z,91.08
2022-11-13T08:50:44.515Z,90.96
2022-11-13T08:53:12.780Z,90.63
2022-11-13T08:55:40.745Z,91.32
2022-11-13T08:58:08.745Z,92.30
2022-11-13T09:00:36.594Z,92.18
2022-11-13T09:03:05.885Z,91.75
2022-11-13T09:05:33.874Z,92.07
2022-11-13T09:08:02.720Z,92.70
2022-11-13T09:10:30.900Z,92.08
2022-11-13T09:12:59.619Z,92.84
2022-11-13T09:15:27.572Z,93.95
2022-11-13T09:17:58.390Z,92.58
2022-11-13T09:20:28.474Z,93.89
2022-11-13T09:23:00.202Z,92.94
2022-11-13T09:25:34.145Z,92.41
2022-11-13T09:28:06.030Z,93.19
2022-11-13T09:30:34.370Z,92.38
2022-11-13T09:33:02.748Z,92.84
2022-11-13T09:35:35.817Z,92.74
2022-11-13T09:38:10.503Z,92.20
2022-11-13T09:40:43.185Z,92.15
2022-11-13T09:43:21.579Z,92.47
2022-11-13T09:45:50.607Z,92.00
2022-11-13T09:48:26.959Z,92.71
2022-11-13T09:50:57.923Z,92.60
2022-11-13T09:53:27.433Z,92.46
2022-11-13T09:56:04.328Z,91.41
2022-11-13T09:58:44.893Z,91.11
2022-11-13T10:01:23.105Z,91.22
2022-11-13T10:04:02.674Z,91.64
2022-11-13T10:06:46.040Z,90.09
2022-11-13T10:09:23.123Z,89.66
2022-11-13T10:11:56.568Z,88.48
2022-11-13T10:14:30.992Z,88.81
2022-11-13T10:17:03.908Z,88.36
2022-11-13T10:19:37.448Z,87.18
2022-11-13T10:22:32.070Z,86.92
2022-11-13T10:25:10.459Z,86.75
2022-11-13T10:27:38.965Z,86.44
2022-11-13T10:30:14.320Z,85.40
2022-11-13T10:32:42.340Z,84.51
2022-11-13T10:35:33.997Z,83.94
2022-11-13T10:38:08.569Z,84.16
2022-11-13T10:40:39.793Z,83.80
2022-11-13T10:43:14.549Z,83.35
2022-11-13T10:45:42.968Z,83.54
2022-11-13T10:48:21.842Z,82.13
2022-11-13T10:50:58.762Z,81.77
2022-11-13T10:53:34.703Z,82.01
2022-11-13T10:56:02.601Z,81.21
2022-11-13T10:58:31.110Z,80.75
2022-11-13T11:00:59.611Z,80.15
2022-11-13T11:03:29.534Z,79.23
2022-11-13T11:05:59.249Z,78.36
2022-11-13T11:08:32.444Z,77.59
2022-11-13T11:11:19.789Z,77.41
2022-11-13T11:13:49.116Z,76.93
2022-11-13T11:16:22.113Z,76.00
2022-11-13T11:18:55.045Z,75.87
2022-11-13T11:21:37.708Z,75.94
2022-11-13T11:24:14.396Z,75.60
2022-11-13T11:26:47.810Z,75.67
2022-11-13T11:29:20.611Z,74.93
2022-11-13T11:31:55.099Z,74.88
2022-11-13T11:34:27.959Z,75.08
2022-11-13T11:37:04.248Z,74.49
2022-11-13T11:39:39.491Z,72.93
2022-11-13T11:42:16.619Z,72.48
2022-11-13T11:45:05.127Z,71.58
2022-11-13T11:47:34.526Z,73.02
2022-11-13T11:50:02.956Z,73.17
2022-11-13T11:52:47.105Z,71.54
2022-11-13T11:56:02.893Z,70.59
2022-11-13T11:59:07.597Z,70.74
2022-11-13T12:01:52.368Z,70.93
2022-11-13T12:04:36.142Z,70.74
2022-11-13T12:07:17.549Z,71.21
2022-11-13T12:09:55.834Z,71.59
2022-11-13T12:12:39.167Z,70.28
2022-11-13T12:15:13.528Z,70.95
2022-11-13T12:17:52.315Z,70.01
2022-11-13T12:20:27.665Z,69.47
2022-11-13T12:23:05.297Z,68.76
2022-11-13T12:25:40.777Z,69.19
2022-11-13T12:28:19.162Z,68.28
2022-11-13T12:31:01.653Z,66.66
2022-11-13T12:33:41.117Z,66.83
2022-11-13T12:36:12.222Z,67.60
2022-11-13T12:38:47.429Z,66.73
2022-11-13T12:41:25.401Z,66.40
2022-11-13T12:44:20.700Z,65.97
2022-11-13T12:46:49.684Z,67.41
2022-11-13T12:49:28.841Z,65.84
2022-11-13T12:51:59.222Z,66.81
2022-11-13T12:54:29.396Z,66.64
2022-11-13T12:57:19.700Z,64.29
2022-11-13T12:59:53.912Z,65.17
2022-11-13T13:02:41.088Z,62.91
2022-11-13T13:05:35.085Z,62.41
2022-11-13T13:08:16.269Z,64.13
2022-11-13T13:11:02.791Z,61.57
2022-11-13T13:13:41.545Z,61.98
2022-11-13T13:16:12.047Z,63.33
2022-11-13T13:18:40.901Z,64.15
2022-11-13T13:21:11.292Z,63.99
2022-11-13T13:23:41.567Z,63.86
2022-11-13T13:26:18.419Z,62.81
2022-11-13T13:28:51.520Z,63.79
2022-11-13T13:31:37.247Z,64.30
2022-11-13T13:34:31.102Z,64.21
2022-11-13T13:37:11.209Z,65.28
2022-11-13T13:39:50.043Z,65.76
2022-11-13T13:42:38.685Z,65.88
2022-11-13T13:45:26.475Z,66.71
2022-11-13T13:47:59.434Z,66.71
2022-11-13T13:50:30.667Z,67.17
2022-11-13T13:53:00.605Z,67.70
2022-11-13T13:55:35.477Z,67.25
2022-11-13T13:58:08.471Z,67.84
2022-11-13T14:00:53.290Z,67.47
2022-11-13T14:03:28.081Z,67.28
2022-11-13T14:05:59.377Z,67.04
2022-11-13T14:08:30.778Z,67.80
2022-11-13T14:10:58.789Z,67.39
2022-11-13T14:13:29.550Z,67.25
2022-11-13T14:16:04.750Z,66.11
2022-11-13T14:18:35.245Z,66.57
2022-11-13T14:21:06.281Z,67.51
2022-11-13T14:23:38.441Z,67.36
2022-11-13T14:26:07.559Z,67.81
2022-11-13T14:28:44.101Z,67.53
2022-11-13T14:31:15.118Z,67.73
2022-11-13T14:33:48.245Z,67.76
2022-11-13T14:36:17.672Z,67.83
2022-11-13T14:38:52.000Z,67.64
2022-11-13T14:41:24.438Z,67.63
2022-11-13T14:43:54.299Z,68.40
2022-11-13T14:46:34.878Z,68.08
2022-11-13T14:49:04.582Z,68.76
2022-11-13T14:51:34.758Z,69.20
2022-11-13T14:54:07.871Z,69.03
2022-11-13T14:56:39.472Z,69.49
2022-11-13T14:59:18.360Z,69.46
2022-11-13T15:01:55.118Z,69.45
2022-11-13T15:04:24.813Z,70.11
2022-11-13T15:06:55.889Z,70.48
2022-11-13T15:09:25.541Z,71.35
2022-11-13T15:11:53.958Z,71.36
2022-11-13T15:14:22.890Z,71.64
2022-11-13T15:16:54.028Z,72.26
2022-11-13T15:19:29.661Z,72.03
2022-11-13T15:22:26.050Z,72.67
2022-11-13T15:24:46.904Z,73.21
2022-11-13T15:27:16.179Z,73.45
2022-11-13T15:29:44.635Z,73.75
2022-11-13T15:32:13.639Z,73.76
2022-11-13T15:34:43.237Z,74.00
2022-11-13T15:37:13.786Z,73.76
2022-11-13T15:39:41.606Z,73.76
2022-11-13T15:42:16.436Z,73.68
2022-11-13T15:44:44.519Z,74.44
2022-11-13T15:47:26.968Z,74.22
2022-11-13T15:50:12.942Z,74.52
2022-11-13T15:52:43.934Z,74.41
2022-11-13T15:55:20.794Z,74.38
2022-11-13T15:57:48.763Z,74.85
2022-11-13T16:00:18.531Z,75.19
2022-11-13T16:02:50.308Z,75.44
2022-11-13T16:05:19.867Z,75.37
2022-11-13T16:07:48.471Z,75.27
2022-11-13T16:10:17.128Z,76.09
2022-11-13T16:12:45.862Z,75.53
2022-11-13T16:15:15.411Z,75.65
2022-11-13T16:17:47.561Z,75.53
2022-11-13T16:20:18.288Z,75.59
2022-11-13T16:22:47.981Z,75.81
2022-11-13T16:25:18.528Z,75.83
2022-11-13T16:27:47.154Z,75.98
2022-11-13T16:30:17.086Z,75.95
2022-11-13T16:32:44.923Z,76.06
2022-11-13T16:35:16.885Z,76.28
2022-11-13T16:37:45.076Z,76.37
2022-11-13T16:40:22.072Z,76.30
2022-11-13T16:42:50.097Z,76.72
2022-11-13T16:45:18.466Z,76.78
2022-11-13T16:47:46.956Z,77.00
2022-11-13T16:50:18.221Z,76.81
2022-11-13T16:52:46.181Z,76.94
2022-11-13T16:55:14.331Z,76.75
2022-11-13T16:57:43.601Z,76.94
2022-11-13T17:00:15.340Z,77.27
2022-11-13T17:02:43.214Z,77.03
2022-11-13T17:05:13.834Z,77.39
2022-11-13T17:07:41.955Z,77.07
2022-11-13T17:13:02.204Z,77.58
2022-11-13T17:15:30.283Z,77.94
2022-11-13T17:17:59.590Z,78.06
2022-11-13T17:20:27.824Z,77.92
2022-11-13T17:22:56.058Z,78.09
2022-11-13T17:25:26.707Z,78.54
2022-11-13T17:27:55.023Z,78.84
2022-11-13T17:30:25.079Z,78.78
2022-11-13T17:32:52.929Z,78.64
2022-11-13T17:35:20.824Z,78.86
2022-11-13T17:37:48.648Z,78.42
2022-11-13T17:40:17.347Z,79.05
2022-11-13T17:42:47.951Z,79.13
2022-11-13T17:45:15.925Z,78.71
2022-11-13T17:47:45.215Z,79.49
2022-11-13T17:50:13.051Z,79.31
2022-11-13T17:52:40.931Z,79.35
2022-11-13T17:55:11.881Z,79.28
2022-11-13T17:57:39.691Z,79.50
2022-11-13T18:00:08.867Z,80.29
2022-11-13T18:02:36.657Z,80.00
2022-11-13T18:05:06.762Z,79.81
2022-11-13T18:07:34.621Z,80.33
2022-11-13T18:10:02.512Z,80.63
2022-11-13T18:12:30.603Z,80.54
2022-11-13T18:14:58.465Z,80.70
2022-11-13T18:17:26.644Z,80.81
2022-11-13T18:20:01.345Z,80.52
2022-11-13T18:22:31.634Z,80.32
2022-11-13T18:25:01.438Z,80.83
2022-11-13T18:27:29.472Z,80.78
2022-11-13T18:29:57.361Z,80.38
2022-11-13T18:32:25.209Z,80.74
2022-11-13T18:34:52.997Z,81.27
2022-11-13T18:37:21.011Z,80.68
2022-11-13T18:39:50.220Z,80.92
2022-11-13T18:42:18.171Z,81.50
2022-11-13T18:44:46.044Z,81.10
2022-11-13T18:47:13.820Z,81.78
2022-11-13T18:49:41.827Z,81.68
2022-11-13T18:52:09.887Z,81.55
2022-11-13T18:54:37.989Z,81.33
2022-11-13T18:57:07.375Z,81.75
2022-11-13T18:59:35.279Z,81.95
2022-11-13T19:02:03.222Z,81.67
2022-11-13T19:04:31.206Z,82.00
2022-11-13T19:06:59.189Z,82.34
2022-11-13T19:09:27.530Z,81.95
2022-11-13T19:11:55.430Z,82.00
2022-11-13T19:14:24.858Z,82.57
2022-11-13T19:16:52.767Z,82.10
2022-11-13T19:19:23.371Z,83.27
2022-11-13T19:21:52.192Z,82.57
2022-11-13T19:24:20.261Z,82.41
2022-11-13T19:26:48.310Z,83.15
2022-11-13T19:29:16.336Z,82.48
2022-11-13T19:31:47.855Z,82.87
2022-11-13T19:34:15.791Z,83.27
2022-11-13T19:36:45.138Z,82.67
2022-11-13T19:39:13.788Z,83.81
2022-11-13T19:41:42.130Z,83.38
2022-11-13T19:44:11.258Z,83.24
2022-11-13T19:46:39.320Z,83.45
2022-11-13T19:49:09.618Z,82.77
2022-11-13T19:51:37.719Z,83.30
2022-11-13T19:54:05.714Z,83.21
2022-11-13T19:56:33.674Z,82.48
2022-11-13T19:59:02.368Z,83.13
2022-11-13T20:01:31.978Z,82.89
2022-11-13T20:04:03.002Z,82.76
2022-11-13T20:06:33.496Z,83.39
2022-11-13T20:09:02.648Z,82.91
2022-11-13T20:11:30.754Z,83.00
2022-11-13T20:13:59.032Z,83.29
2022-11-13T20:16:27.076Z,83.10
2022-11-13T20:18:57.866Z,83.33
2022-11-13T20:21:26.734Z,83.07
2022-11-13T20:23:57.531Z,82.56
2022-11-13T20:26:26.319Z,83.27
2022-11-13T20:28:54.412Z,83.21
2022-11-13T20:31:24.458Z,83.07
2022-11-13T20:33:54.853Z,82.49
2022-11-13T20:36:23.727Z,83.30
2022-11-13T20:38:54.292Z,83.41
2022-11-13T20:41:24.718Z,82.68
2022-11-13T20:43:55.843Z,83.19
2022-11-13T20:46:24.070Z,83.46
2022-11-13T20:48:52.200Z,83.17
2022-11-13T20:51:22.050Z,83.19
2022-11-13T20:53:50.834Z,82.76
2022-11-13T20:56:19.856Z,82.94
2022-11-13T20:58:49.527Z,82.65
2022-11-13T21:01:20.407Z,82.93
2022-11-13T21:03:49.425Z,82.80
2022-11-13T21:06:19.559Z,82.77
2022-11-13T21:08:48.448Z,83.72
2022-11-13T21:11:19.520Z,82.78
2022-11-13T21:13:49.702Z,83.03
2022-11-13T21:16:18.259Z,83.43
2022-11-13T21:18:46.427Z,83.09
2022-11-13T21:21:16.171Z,83.21
2022-11-13T21:23:44.074Z,83.37
2022-11-13T21:26:12.448Z,83.21
2022-11-13T21:28:40.802Z,82.67
2022-11-13T21:31:17.051Z,82.55
2022-11-13T21:33:46.872Z,83.28
2022-11-13T21:36:16.834Z,82.72
2022-11-13T21:38:44.812Z,83.14
2022-11-13T21:41:24.743Z,83.20
2022-11-13T21:43:55.119Z,83.58
2022-11-13T21:46:28.462Z,83.23
2022-11-13T21:48:57.840Z,83.24
2022-11-13T21:51:25.783Z,82.78
2022-11-13T21:53:53.891Z,83.61
2022-11-13T21:56:21.966Z,83.39
2022-11-13T21:58:49.787Z,83.46
2022-11-13T22:01:18.684Z,83.37
2022-11-13T22:03:47.969Z,83.85
2022-11-13T22:06:18.380Z,83.96
2022-11-13T22:08:48.260Z,83.55
2022-11-13T22:11:16.337Z,82.99
2022-11-13T22:13:44.248Z,82.97
2022-11-13T22:16:14.086Z,83.61
2022-11-13T22:18:42.050Z,83.36
2022-11-13T22:21:12.800Z,83.46
2022-11-13T22:23:41.117Z,83.33
2022-11-13T22:26:11.089Z,83.49
2022-11-13T22:28:41.321Z,83.83
2022-11-13T22:31:14.528Z,83.52
2022-11-13T22:33:48.165Z,83.59
2022-11-13T22:36:21.450Z,84.13
2022-11-13T22:38:49.891Z,83.64
2022-11-13T22:41:23.667Z,83.27
2022-11-13T22:43:53.481Z,84.01
2022-11-13T22:46:23.129Z,84.27
2022-11-13T22:48:52.621Z,84.25
2022-11-13T22:51:23.520Z,84.60
2022-11-13T22:53:53.355Z,83.47
2022-11-13T22:56:22.505Z,83.10
2022-11-13T22:58:51.025Z,83.56
2022-11-13T23:01:21.825Z,84.11
2022-11-13T23:03:50.869Z,83.60
2022-11-13T23:06:22.146Z,84.18
2022-11-13T23:08:51.179Z,83.67
2022-11-13T23:11:21.362Z,84.58
2022-11-13T23:13:51.359Z,83.71
2022-11-13T23:16:20.036Z,84.68
2022-11-13T23:18:48.828Z,84.40
2022-11-13T23:21:17.902Z,84.29
2022-11-13T23:23:47.349Z,84.06
2022-11-13T23:26:16.989Z,84.55
2022-11-13T23:28:45.124Z,83.97
2022-11-13T23:31:13.310Z,84.45
2022-11-13T23:33:41.542Z,83.92
2022-11-13T23:36:11.396Z,84.95
2022-11-13T23:38:39.420Z,84.46
2022-11-13T23:41:10.506Z,84.41
2022-11-13T23:46:26.635Z,84.90
2022-11-13T23:48:54.485Z,83.50
2022-11-13T23:51:22.493Z,84.06
2022-11-13T23:53:50.513Z,84.18
2022-11-13T23:56:19.679Z,84.34
2022-11-13T23:58:47.592Z,83.71
